Time;durP1;ratioP1;P1;durP2;ratioP2;P2;SDS_P1;SDS_P2;PMS_P1;PMS_P2;Temp;Humidity;BMP_temperature;BMP_pressure;BME280_temperature;BME280_humidity;BME280_pressure;Samples;Min_cycle;Max_cycle;Signal;HPM_P1;HPM_P2
2021/01/18 00:00:54;;;;;;;22.85;16.92;;;17.70;99.90;;;;;;5073228;28;20031;-26
2021/01/18 00:03:20;;;;;;;20.10;17.70;;;17.70;99.90;;;;;;5073193;28;20060;-32
2021/01/18 00:05:46;;;;;;;19.67;15.68;;;17.70;99.90;;;;;;5073238;28;20045;-31
2021/01/18 00:08:12;;;;;;;20.85;16.55;;;17.70;99.90;;;;;;5075551;28;20091;-31
2021/01/18 00:10:38;;;;;;;19.55;15.27;;;17.60;99.90;;;;;;5077439;28;20525;-32
2021/01/18 00:13:04;;;;;;;19.25;14.95;;;17.60;99.90;;;;;;5075963;28;20024;-31
2021/01/18 00:15:29;;;;;;;18.40;15.00;;;17.50;99.90;;;;;;5077721;28;20074;-33
2021/01/18 00:17:55;;;;;;;17.77;14.27;;;17.50;99.90;;;;;;5077170;28;20104;-32
2021/01/18 00:20:23;;;;;;;19.08;14.25;;;17.50;99.90;;;;;;5077455;28;20024;-32
2021/01/18 00:22:49;;;;;;;23.88;14.93;;;17.40;99.90;;;;;;5075851;28;20025;-31
2021/01/18 00:25:20;;;;;;;16.58;13.43;;;17.40;99.90;;;;;;5077217;28;20124;-32
2021/01/18 00:27:47;;;;;;;18.27;13.52;;;17.40;99.90;;;;;;5077343;28;20039;-32
2021/01/18 00:30:24;;;;;;;16.70;12.82;;;17.30;99.90;;;;;;5077405;28;20362;-33
2021/01/18 00:32:51;;;;;;;16.15;13.07;;;17.40;99.90;;;;;;5076773;28;20048;-32
2021/01/18 00:35:19;;;;;;;16.20;12.17;;;17.30;99.90;;;;;;5076994;28;20028;-33
2021/01/18 00:37:49;;;;;;;15.40;12.27;;;17.30;99.90;;;;;;5076991;28;20340;-31
2021/01/18 00:40:18;;;;;;;18.60;13.40;;;17.30;99.90;;;;;;5077043;28;20029;-33
2021/01/18 00:42:45;;;;;;;14.52;12.02;;;17.30;99.90;;;;;;5077059;28;20448;-32
2021/01/18 00:45:13;;;;;;;15.37;12.63;;;17.20;99.90;;;;;;5076994;28;20028;-33
2021/01/18 00:47:40;;;;;;;19.42;12.43;;;17.20;99.90;;;;;;5076819;28;20258;-33
2021/01/18 00:50:07;;;;;;;15.82;12.13;;;17.20;99.90;;;;;;5076710;28;20082;-32
2021/01/18 00:52:33;;;;;;;15.13;11.82;;;17.20;99.90;;;;;;5075047;28;20119;-32
2021/01/18 00:54:59;;;;;;;17.27;13.00;;;17.20;99.90;;;;;;5076482;28;20116;-32
2021/01/18 00:57:34;;;;;;;15.10;11.85;;;17.20;99.90;;;;;;5076518;28;20029;-32
2021/01/18 01:00:00;;;;;;;15.35;11.95;;;17.10;99.90;;;;;;5076585;28;20024;-32
2021/01/18 01:02:26;;;;;;;19.85;11.35;;;17.10;99.90;;;;;;5076591;28;20016;-32
2021/01/18 01:04:52;;;;;;;15.80;11.63;;;17.10;99.90;;;;;;5076508;28;20038;-31
2021/01/18 01:07:18;;;;;;;15.57;12.02;;;17.10;99.90;;;;;;5076618;28;20029;-32
2021/01/18 01:09:44;;;;;;;14.50;11.27;;;17.10;99.90;;;;;;5076479;28;20060;-31
2021/01/18 01:12:10;;;;;;;15.95;11.68;;;17.00;99.90;;;;;;5076548;28;20062;-32
2021/01/18 01:14:36;;;;;;;15.80;10.95;;;17.00;99.90;;;;;;5076451;28;20066;-32
2021/01/18 01:17:01;;;;;;;14.05;11.35;;;17.00;99.90;;;;;;5075999;28;20028;-31
2021/01/18 01:19:27;;;;;;;17.40;11.70;;;17.00;99.90;;;;;;5074800;28;20021;-31
2021/01/18 01:21:53;;;;;;;12.82;10.43;;;17.00;99.90;;;;;;5076034;28;20032;-31
2021/01/18 01:24:20;;;;;;;13.43;11.43;;;16.90;99.90;;;;;;5076000;28;20017;-32
2021/01/18 01:26:46;;;;;;;16.03;11.40;;;16.90;99.90;;;;;;5075961;28;20417;-32
2021/01/18 01:29:12;;;;;;;16.38;11.40;;;16.90;99.90;;;;;;5075837;28;20029;-32
2021/01/18 01:31:38;;;;;;;17.25;12.30;;;16.90;99.90;;;;;;5076224;28;20083;-32
2021/01/18 01:34:04;;;;;;;14.18;10.63;;;16.90;99.90;;;;;;5074375;28;20055;-31
2021/01/18 01:36:30;;;;;;;14.38;11.75;;;16.90;99.90;;;;;;5076090;28;20032;-31
2021/01/18 01:38:56;;;;;;;14.65;11.68;;;16.80;99.90;;;;;;5075767;28;20104;-32
2021/01/18 01:41:22;;;;;;;19.15;11.38;;;16.80;99.90;;;;;;5075711;28;20062;-32
2021/01/18 01:43:47;;;;;;;14.07;11.23;;;16.80;99.90;;;;;;5075657;28;20032;-32
2021/01/18 01:46:15;;;;;;;15.93;11.90;;;16.80;99.90;;;;;;5075707;28;20044;-31
2021/01/18 01:48:41;;;;;;;14.65;11.55;;;16.70;99.90;;;;;;5075538;28;20508;-31
2021/01/18 01:51:08;;;;;;;18.25;11.25;;;16.80;99.90;;;;;;5075822;28;20036;-32
2021/01/18 01:53:36;;;;;;;23.00;11.73;;;16.70;99.90;;;;;;5075495;28;20032;-32
2021/01/18 01:56:02;;;;;;;;;;;16.70;99.90;;;;;;5076053;28;20454;-31
2021/01/18 01:58:29;;;;;;;13.85;10.95;;;16.70;99.90;;;;;;5075297;28;19908;-32
2021/01/18 02:00:58;;;;;;;16.00;11.10;;;16.70;99.90;;;;;;5075333;28;20025;-32
2021/01/18 02:03:33;;;;;;;13.40;10.60;;;16.70;99.90;;;;;;5060168;28;20025;-31
2021/01/18 02:05:59;;;;;;;14.10;10.40;;;16.60;99.90;;;;;;5055485;28;20018;-31
2021/01/18 02:08:24;;;;;;;15.85;10.27;;;16.60;99.90;;;;;;5055020;28;20538;-32
2021/01/18 02:10:50;;;;;;;17.65;10.43;;;16.60;99.90;;;;;;5055417;28;20035;-31
2021/01/18 02:13:37;;;;;;;15.05;10.57;;;16.60;99.90;;;;;;5055161;28;20025;-31
2021/01/18 02:16:30;;;;;;;14.18;10.15;;;16.50;99.90;;;;;;5054996;28;20039;-32
2021/01/18 02:18:59;;;;;;;13.90;9.85;;;16.50;99.90;;;;;;5052471;28;20036;-32
2021/01/18 02:21:40;;;;;;;12.07;9.75;;;16.50;99.90;;;;;;5054991;28;20021;-31
2021/01/18 02:24:20;;;;;;;13.18;9.52;;;16.50;99.90;;;;;;5054905;28;20031;-31
2021/01/18 02:27:10;;;;;;;19.48;10.77;;;16.40;99.90;;;;;;5054780;28;20017;-31
2021/01/18 02:30:04;;;;;;;13.25;10.02;;;16.40;99.90;;;;;;5055118;28;20028;-32
2021/01/18 02:33:07;;;;;;;14.25;9.80;;;16.40;99.90;;;;;;5054488;28;20102;-31
2021/01/18 02:36:07;;;;;;;12.88;9.75;;;16.40;99.90;;;;;;5054832;28;20060;-32
2021/01/18 02:38:40;;;;;;;12.02;9.07;;;16.40;99.90;;;;;;5069914;28;20499;-33
2021/01/18 02:41:11;;;;;;;16.38;10.10;;;16.30;99.90;;;;;;5072431;28;20036;-32
2021/01/18 02:43:52;;;;;;;12.27;9.30;;;16.40;99.90;;;;;;5074601;28;20016;-32
2021/01/18 02:46:21;;;;;;;11.77;8.85;;;16.30;99.90;;;;;;5074705;28;20405;-32
2021/01/18 02:48:48;;;;;;;16.02;8.43;;;16.30;99.90;;;;;;5074676;28;20024;-33
2021/01/18 02:51:23;;;;;;;12.90;9.27;;;16.30;99.90;;;;;;5074454;28;20052;-32
2021/01/18 02:53:56;;;;;;;12.20;8.02;;;16.30;99.90;;;;;;5074293;28;20033;-32
2021/01/18 02:56:29;;;;;;;10.38;8.32;;;16.30;99.90;;;;;;5074412;28;20078;-32
2021/01/18 02:58:58;;;;;;;10.65;8.10;;;16.30;99.90;;;;;;5074268;28;20086;-32
2021/01/18 03:01:53;;;;;;;13.00;8.43;;;16.30;99.90;;;;;;5074047;28;20062;-32
2021/01/18 03:04:46;;;;;;;11.23;7.40;;;16.20;99.90;;;;;;5074273;28;20028;-33
2021/01/18 03:07:26;;;;;;;11.80;7.55;;;16.20;99.90;;;;;;5074130;28;20079;-32
2021/01/18 03:10:03;;;;;;;10.18;8.23;;;16.20;99.90;;;;;;5074114;28;20017;-33
2021/01/18 03:12:37;;;;;;;14.48;7.78;;;16.20;99.90;;;;;;5074294;28;20020;-33
2021/01/18 03:15:08;;;;;;;9.15;7.28;;;16.20;99.90;;;;;;5074262;28;20103;-32
2021/01/18 03:17:36;;;;;;;12.38;8.23;;;16.20;99.90;;;;;;5073755;28;20027;-32
2021/01/18 03:20:02;;;;;;;12.10;7.75;;;16.20;99.90;;;;;;5073833;28;20078;-33
2021/01/18 03:22:28;;;;;;;9.20;7.32;;;16.20;99.90;;;;;;5073777;28;20020;-32
2021/01/18 03:25:06;;;;;;;11.00;7.88;;;16.20;99.90;;;;;;5073987;28;20040;-32
2021/01/18 03:27:50;;;;;;;9.13;7.10;;;16.20;99.90;;;;;;5073782;28;20028;-32
2021/01/18 03:30:22;;;;;;;10.93;7.50;;;16.20;99.90;;;;;;5073937;28;20474;-32
2021/01/18 03:32:49;;;;;;;9.25;7.40;;;16.20;99.90;;;;;;5073636;28;20045;-32
2021/01/18 03:35:16;;;;;;;9.98;7.15;;;16.20;99.90;;;;;;5073615;28;20024;-32
2021/01/18 03:37:42;;;;;;;12.32;7.95;;;16.10;99.90;;;;;;5073689;28;20040;-27
2021/01/18 03:40:08;;;;;;;13.45;8.45;;;16.20;99.90;;;;;;5073431;28;20493;-27
2021/01/18 03:42:33;;;;;;;12.82;8.80;;;16.20;99.90;;;;;;5072733;28;20021;-27
2021/01/18 03:44:59;;;;;;;13.88;9.35;;;16.10;99.90;;;;;;5073393;28;20016;-27
2021/01/18 03:47:25;;;;;;;12.65;9.00;;;16.10;99.90;;;;;;5073363;28;20043;-27
2021/01/18 03:49:51;;;;;;;11.95;8.90;;;16.10;99.90;;;;;;5073456;28;20032;-27
2021/01/18 03:52:17;;;;;;;12.82;8.65;;;16.10;99.90;;;;;;5073498;28;20025;-27
2021/01/18 03:54:42;;;;;;;16.88;10.77;;;16.10;99.90;;;;;;5073381;28;20033;-27
2021/01/18 03:57:08;;;;;;;13.65;9.75;;;16.10;99.90;;;;;;5073379;28;20025;-27
2021/01/18 03:59:34;;;;;;;11.57;9.38;;;16.10;99.90;;;;;;5073474;28;20024;-27
2021/01/18 04:02:00;;;;;;;12.30;9.20;;;16.00;99.90;;;;;;5073216;28;20031;-27
2021/01/18 04:04:25;;;;;;;14.15;9.30;;;16.00;99.90;;;;;;5073375;28;20324;-27
2021/01/18 04:06:51;;;;;;;11.85;8.77;;;16.00;99.90;;;;;;5073277;28;20025;-27
2021/01/18 04:09:17;;;;;;;10.75;8.68;;;16.00;99.90;;;;;;5073260;28;20028;-27
2021/01/18 04:11:43;;;;;;;12.90;9.32;;;16.00;99.90;;;;;;5072993;28;20056;-27
2021/01/18 04:14:09;;;;;;;10.48;8.07;;;16.00;99.90;;;;;;5072917;28;20428;-26
2021/01/18 04:16:41;;;;;;;10.20;8.05;;;16.00;99.90;;;;;;5073005;28;20060;-27
2021/01/18 04:19:07;;;;;;;10.40;8.20;;;15.90;99.90;;;;;;5073333;28;20427;-26
2021/01/18 04:21:37;;;;;;;11.48;8.35;;;16.00;99.90;;;;;;5073032;28;20047;-26
2021/01/18 04:24:03;;;;;;;8.63;7.28;;;15.90;99.90;;;;;;5073026;28;20024;-26
2021/01/18 04:26:29;;;;;;;10.63;8.35;;;15.90;99.90;;;;;;5072858;28;20017;-26
2021/01/18 04:28:55;;;;;;;9.00;7.15;;;15.90;99.90;;;;;;5071494;28;20378;-26
2021/01/18 04:31:20;;;;;;;13.07;7.60;;;15.90;99.90;;;;;;5088722;28;20048;-26
2021/01/18 04:33:46;;;;;;;11.25;7.93;;;15.90;99.90;;;;;;5072846;28;20057;-26
2021/01/18 04:36:12;;;;;;;10.30;7.18;;;15.90;99.90;;;;;;5072933;28;20032;-26
2021/01/18 04:38:38;;;;;;;9.73;7.45;;;15.90;99.90;;;;;;5072830;28;20453;-26
2021/01/18 04:41:11;;;;;;;10.15;7.53;;;15.80;99.90;;;;;;5072890;28;20020;-27
2021/01/18 04:43:39;;;;;;;9.52;7.55;;;15.80;99.90;;;;;;5072919;28;20020;-26
2021/01/18 04:46:09;;;;;;;;;;;15.80;99.90;;;;;;5073434;28;20036;-27
2021/01/18 04:48:38;;;;;;;13.95;8.05;;;15.90;99.90;;;;;;5072803;28;19904;-27
2021/01/18 04:51:06;;;;;;;10.55;7.40;;;15.80;99.90;;;;;;5073071;28;20364;-32
2021/01/18 04:53:33;;;;;;;14.40;8.27;;;15.80;99.90;;;;;;5073668;28;20060;-32
2021/01/18 04:56:18;;;;;;;8.50;7.60;;;15.80;99.90;;;;;;5076918;28;20048;-33
2021/01/18 04:58:47;;;;;;;10.00;7.47;;;15.80;99.90;;;;;;5092016;28;20266;-33
2021/01/18 05:01:16;;;;;;;11.30;8.55;;;15.80;99.90;;;;;;5076354;28;20016;-33
2021/01/18 05:03:45;;;;;;;9.55;7.93;;;15.80;99.90;;;;;;5076672;28;20421;-33
2021/01/18 05:06:10;;;;;;;10.40;8.05;;;15.70;99.90;;;;;;5076323;28;20029;-33
2021/01/18 05:09:04;;;;;;;11.57;8.27;;;15.70;99.90;;;;;;5076363;28;20025;-32
2021/01/18 05:11:33;;;;;;;10.32;7.75;;;15.70;99.90;;;;;;5076442;28;20075;-33
2021/01/18 05:14:03;;;;;;;11.52;8.25;;;15.70;99.90;;;;;;5076407;28;20463;-33
2021/01/18 05:16:36;;;;;;;13.23;7.88;;;15.70;99.90;;;;;;5076319;28;20024;-32
2021/01/18 05:19:12;;;;;;;15.23;9.02;;;15.70;99.90;;;;;;5076098;28;20500;-27
2021/01/18 05:21:43;;;;;;;12.35;9.07;;;15.60;99.90;;;;;;5076117;28;20028;-27
2021/01/18 05:24:09;;;;;;;11.98;8.18;;;15.60;99.90;;;;;;5076081;28;20021;-27
2021/01/18 05:26:36;;;;;;;11.48;7.43;;;15.70;99.90;;;;;;5076303;28;20432;-26
2021/01/18 05:29:03;;;;;;;11.95;7.80;;;15.60;99.90;;;;;;5075826;28;20028;-27
2021/01/18 05:31:29;;;;;;;9.30;7.22;;;15.60;99.90;;;;;;5075453;28;20513;-33
2021/01/18 05:33:55;;;;;;;12.98;8.05;;;15.60;99.90;;;;;;5075456;28;20063;-33
2021/01/18 05:36:37;;;;;;;14.98;8.48;;;15.60;99.90;;;;;;5076317;28;20466;-32
2021/01/18 05:39:14;;;;;;;8.27;7.13;;;15.60;99.90;;;;;;5075381;28;20028;-33
2021/01/18 05:41:40;;;;;;;8.07;7.13;;;15.60;99.90;;;;;;5075594;28;20025;-28
2021/01/18 05:44:08;;;;;;;10.68;8.50;;;15.60;99.90;;;;;;5074821;28;20028;-27
2021/01/18 05:46:35;;;;;;;9.35;7.80;;;15.50;99.90;;;;;;5075221;28;20021;-27
2021/01/18 05:49:12;;;;;;;10.97;7.00;;;15.50;99.90;;;;;;5075030;28;20029;-27
2021/01/18 05:51:39;;;;;;;10.75;7.95;;;15.50;99.90;;;;;;5075377;28;20261;-26
2021/01/18 05:54:09;;;;;;;13.68;8.10;;;15.50;99.90;;;;;;5075347;28;20037;-27
2021/01/18 05:56:44;;;;;;;11.25;7.97;;;15.50;99.90;;;;;;5075274;28;20021;-27
2021/01/18 05:59:21;;;;;;;13.90;9.15;;;15.40;99.90;;;;;;5074841;28;20024;-28
2021/01/18 06:01:49;;;;;;;12.18;7.95;;;15.40;99.90;;;;;;5074654;28;20021;-27
2021/01/18 06:04:17;;;;;;;13.02;7.78;;;15.40;99.90;;;;;;5075500;28;20033;-27
2021/01/18 06:06:53;;;;;;;;;;;15.50;99.90;;;;;;5075093;28;20043;-27
2021/01/18 06:09:19;;;;;;;11.63;7.88;;;15.50;99.90;;;;;;5075072;28;19923;-28
2021/01/18 06:11:45;;;;;;;10.85;8.32;;;15.50;99.90;;;;;;5074878;28;20024;-27
2021/01/18 06:14:11;;;;;;;9.55;7.63;;;15.40;99.90;;;;;;5075321;28;20029;-28
2021/01/18 06:16:39;;;;;;;12.23;8.95;;;15.40;99.90;;;;;;5073582;28;20035;-27
2021/01/18 06:19:10;;;;;;;11.10;7.95;;;15.40;99.90;;;;;;5074779;28;20052;-26
2021/01/18 06:21:40;;;;;;;11.27;7.85;;;15.40;99.90;;;;;;5074620;28;20025;-27
2021/01/18 06:24:19;;;;;;;11.45;7.32;;;15.40;99.90;;;;;;5074790;28;20016;-27
2021/01/18 06:26:45;;;;;;;11.20;8.63;;;15.30;99.90;;;;;;5074991;28;20025;-27
2021/01/18 06:29:42;;;;;;;12.50;8.32;;;15.30;99.90;;;;;;5074556;28;20478;-27
2021/01/18 06:32:13;;;;;;;14.48;8.63;;;15.30;99.90;;;;;;5074483;28;20036;-29
2021/01/18 06:34:38;;;;;;;11.90;7.65;;;15.30;99.90;;;;;;5073158;28;20080;-27
2021/01/18 06:37:23;;;;;;;11.63;8.18;;;15.30;99.90;;;;;;5074748;28;20102;-30
2021/01/18 06:39:57;;;;;;;13.48;8.68;;;15.30;99.90;;;;;;5074667;28;20016;-27
2021/01/18 06:42:23;;;;;;;10.80;8.07;;;15.20;99.90;;;;;;5074459;28;20020;-27
2021/01/18 06:44:51;;;;;;;15.50;8.02;;;15.20;99.90;;;;;;5074061;28;20042;-27
2021/01/18 06:47:32;;;;;;;12.40;8.05;;;15.30;99.90;;;;;;5074372;28;20022;-27
2021/01/18 06:50:07;;;;;;;10.48;7.72;;;15.20;99.90;;;;;;5074394;28;20017;-30
2021/01/18 06:52:34;;;;;;;13.20;8.73;;;15.20;99.90;;;;;;5074349;28;20023;-34
2021/01/18 06:55:12;;;;;;;11.98;7.75;;;15.20;99.90;;;;;;5081419;28;20034;-31
2021/01/18 06:57:47;;;;;;;12.20;9.10;;;15.20;99.90;;;;;;5093168;28;20031;-27
2021/01/18 07:00:17;;;;;;;11.98;8.23;;;15.20;99.90;;;;;;5091176;28;20016;-31
2021/01/18 07:03:32;;;;;;;11.98;8.25;;;15.20;99.90;;;;;;5074158;28;20103;-37
2021/01/18 07:06:06;;;;;;;14.90;7.80;;;15.20;99.90;;;;;;5031351;28;20029;-34
2021/01/18 07:08:40;;;;;;;16.83;9.32;;;15.20;99.90;;;;;;5065144;28;20029;-33
2021/01/18 07:11:10;;;;;;;13.60;8.38;;;15.20;99.90;;;;;;5070713;28;20111;-33
2021/01/18 07:13:36;;;;;;;14.88;8.82;;;15.20;99.90;;;;;;5051622;28;20036;-33
2021/01/18 07:16:07;;;;;;;14.55;8.65;;;15.20;99.90;;;;;;5051708;28;20052;-32
2021/01/18 07:18:37;;;;;;;17.10;8.57;;;15.20;99.90;;;;;;5051533;28;20108;-33
2021/01/18 07:21:05;;;;;;;16.40;8.88;;;15.20;99.90;;;;;;5051554;28;20095;-32
2021/01/18 07:23:36;;;;;;;17.25;9.65;;;15.20;99.90;;;;;;5051757;28;20033;-33
2021/01/18 07:26:36;;;;;;;16.77;9.02;;;15.30;99.90;;;;;;5051692;28;20459;-32
2021/01/18 07:29:07;;;;;;;14.48;8.77;;;15.20;99.90;;;;;;5051783;28;20069;-33
2021/01/18 07:31:37;;;;;;;12.55;8.82;;;15.20;99.90;;;;;;5051610;28;20025;-32
2021/01/18 07:34:04;;;;;;;14.60;9.82;;;15.30;99.90;;;;;;5051402;28;20087;-32
2021/01/18 07:36:32;;;;;;;17.77;9.73;;;15.30;99.90;;;;;;5051766;28;20039;-33
2021/01/18 07:38:58;;;;;;;;;;;15.30;99.90;;;;;;5051936;28;20060;-32
2021/01/18 07:41:37;;;;;;;16.88;9.68;;;15.40;99.90;;;;;;5053884;28;19908;-33
2021/01/18 07:44:24;;;;;;;14.13;8.85;;;15.30;99.90;;;;;;5073563;28;20412;-32
2021/01/18 07:47:01;;;;;;;13.50;8.68;;;15.40;99.90;;;;;;5073400;28;20021;-33
2021/01/18 07:49:29;;;;;;;11.63;9.03;;;15.40;99.90;;;;;;5073621;28;20478;-33
2021/01/18 07:52:16;;;;;;;13.00;8.30;;;15.30;99.90;;;;;;5073486;28;20074;-32
2021/01/18 07:54:42;;;;;;;14.15;9.20;;;15.40;99.90;;;;;;5074088;28;20107;-33
2021/01/18 07:57:28;;;;;;;11.02;8.35;;;15.40;99.90;;;;;;5073354;28;20100;-33
2021/01/18 08:00:19;;;;;;;140.18;110.93;;;15.40;99.90;;;;;;5073342;28;20028;-32
2021/01/18 08:02:52;;;;;;;281.70;221.90;;;15.20;99.90;;;;;;5073093;28;20025;-32
2021/01/18 08:05:25;;;;;;;280.30;206.18;;;15.00;99.90;;;;;;5072049;28;20039;-32
2021/01/18 08:08:05;;;;;;;299.75;232.30;;;14.80;99.90;;;;;;5073300;28;20025;-32
2021/01/18 08:10:51;;;;;;;199.32;149.13;;;14.60;99.90;;;;;;5071910;28;20020;-32
2021/01/18 08:13:38;;;;;;;204.68;151.55;;;14.60;99.90;;;;;;5073451;28;20028;-31
2021/01/18 08:16:19;;;;;;;184.63;137.60;;;14.70;99.90;;;;;;5073248;28;20027;-33
2021/01/18 08:18:58;;;;;;;169.85;128.85;;;14.90;99.90;;;;;;5073176;28;20481;-32
2021/01/18 08:21:36;;;;;;;155.02;116.05;;;15.00;99.90;;;;;;5073131;28;20029;-32
2021/01/18 08:24:07;;;;;;;138.65;109.70;;;15.10;99.90;;;;;;5073317;28;20032;-33
2021/01/18 08:26:53;;;;;;;137.45;99.97;;;15.10;99.90;;;;;;5073485;28;20420;-33
2021/01/18 08:29:32;;;;;;;118.95;87.93;;;15.20;99.90;;;;;;5075388;28;20028;-33
2021/01/18 08:32:23;;;;;;;107.53;82.43;;;15.20;99.90;;;;;;5077026;28;20029;-33
2021/01/18 08:34:57;;;;;;;93.95;74.07;;;15.30;99.90;;;;;;5076775;28;20044;-32
2021/01/18 08:37:25;;;;;;;94.15;70.35;;;15.30;99.90;;;;;;5076808;28;20025;-33
2021/01/18 08:39:55;;;;;;;90.55;66.00;;;15.40;99.90;;;;;;5077128;28;20028;-32
2021/01/18 08:42:25;;;;;;;80.32;60.97;;;15.40;99.90;;;;;;5077255;28;20040;-32
2021/01/18 08:45:20;;;;;;;71.25;56.10;;;15.40;99.90;;;;;;5076694;28;20398;-32
2021/01/18 08:47:54;;;;;;;72.30;52.80;;;15.50;99.90;;;;;;5073491;28;20044;-32
2021/01/18 08:50:24;;;;;;;64.22;51.42;;;15.50;99.90;;;;;;5076550;28;20028;-32
2021/01/18 08:52:52;;;;;;;63.25;48.88;;;15.60;99.90;;;;;;5076965;28;20028;-33
2021/01/18 08:55:30;;;;;;;63.55;47.03;;;15.60;99.90;;;;;;5075917;28;20025;-35
2021/01/18 08:57:58;;;;;;;56.00;44.15;;;15.60;99.90;;;;;;5076252;28;20074;-28
2021/01/18 09:00:24;;;;;;;;;;;15.70;99.90;;;;;;5076608;28;20033;-27
2021/01/18 09:02:50;;;;;;;57.53;39.88;;;15.70;99.90;;;;;;5074973;28;20358;-27
2021/01/18 09:05:22;;;;;;;53.05;40.40;;;15.70;99.90;;;;;;5075059;28;20032;-28
2021/01/18 09:07:49;;;;;;;51.17;40.50;;;15.80;99.90;;;;;;5075984;28;20020;-28
2021/01/18 09:10:20;;;;;;;53.72;41.00;;;15.80;99.90;;;;;;5076300;28;20028;-27
2021/01/18 09:12:47;;;;;;;51.75;41.83;;;15.80;99.90;;;;;;5075527;28;20083;-28
2021/01/18 09:15:14;;;;;;;53.57;41.23;;;15.80;99.90;;;;;;5075340;28;20404;-28
2021/01/18 09:17:40;;;;;;;46.47;38.03;;;15.80;99.90;;;;;;5074998;28;20270;-36
2021/01/18 09:20:08;;;;;;;49.50;37.92;;;15.90;99.90;;;;;;5072684;28;20440;-36
2021/01/18 09:22:38;;;;;;;43.03;34.05;;;15.90;99.90;;;;;;5071788;28;20048;-37
2021/01/18 09:25:05;;;;;;;45.83;33.65;;;16.00;99.90;;;;;;5074949;28;20028;-36
2021/01/18 09:27:35;;;;;;;44.13;34.65;;;16.00;99.90;;;;;;5075341;28;20029;-36
2021/01/18 09:30:03;;;;;;;55.65;40.92;;;16.10;99.90;;;;;;5076041;28;20079;-35
2021/01/18 09:32:30;;;;;;;60.88;45.92;;;16.10;99.90;;;;;;5075723;28;20090;-36
2021/01/18 09:35:09;;;;;;;63.35;47.15;;;16.20;99.90;;;;;;5075502;28;20055;-35
2021/01/18 09:37:43;;;;;;;59.75;46.03;;;16.20;99.90;;;;;;5075334;28;20024;-37
2021/01/18 09:40:09;;;;;;;65.18;48.30;;;16.20;99.90;;;;;;5074396;28;20041;-36
2021/01/18 09:42:36;;;;;;;69.10;54.47;;;16.20;99.90;;;;;;5075537;28;20029;-35
2021/01/18 09:45:07;;;;;;;76.65;58.38;;;16.20;99.90;;;;;;5075848;28;20021;-36
2021/01/18 09:47:33;;;;;;;75.68;56.17;;;16.30;99.90;;;;;;5075317;28;20020;-35
2021/01/18 09:50:15;;;;;;;80.15;59.92;;;16.30;99.90;;;;;;5069190;28;20116;-36
2021/01/18 09:52:52;;;;;;;96.13;61.83;;;16.30;99.90;;;;;;5066329;28;20059;-36
2021/01/18 09:55:30;;;;;;;75.97;60.03;;;16.40;99.90;;;;;;5075257;28;20103;-37
2021/01/18 09:58:32;;;;;;;61.85;46.88;;;16.40;99.90;;;;;;5074965;28;20055;-35
2021/01/18 10:01:00;;;;;;;64.30;49.88;;;16.40;99.90;;;;;;5055453;28;20043;-36
2021/01/18 10:03:35;;;;;;;63.60;49.88;;;16.50;99.90;;;;;;5061518;28;20021;-28
2021/01/18 10:06:21;;;;;;;68.25;51.03;;;16.40;99.90;;;;;;5060112;28;20116;-28
2021/01/18 10:08:51;;;;;;;57.80;44.80;;;16.40;99.90;;;;;;5075331;28;20439;-28
2021/01/18 10:11:39;;;;;;;45.03;35.72;;;16.50;99.90;;;;;;5074686;28;20016;-27
2021/01/18 10:14:12;;;;;;;39.40;29.40;;;16.40;99.90;;;;;;5073117;28;20501;-28
2021/01/18 10:16:37;;;;;;;36.92;28.10;;;16.40;99.90;;;;;;5074389;28;20031;-28
2021/01/18 10:19:16;;;;;;;60.38;42.20;;;16.40;99.90;;;;;;5073860;28;20381;-27
2021/01/18 10:21:43;;;;;;;43.60;32.55;;;16.30;99.90;;;;;;5074524;28;20055;-28
2021/01/18 10:24:09;;;;;;;46.40;31.00;;;16.40;99.90;;;;;;5074081;28;20486;-28
2021/01/18 10:26:36;;;;;;;42.60;24.85;;;16.30;99.90;;;;;;5071608;28;20073;-27
2021/01/18 10:29:09;;;;;;;36.92;25.63;;;16.50;99.90;;;;;;5074036;28;20366;-28
2021/01/18 10:31:35;;;;;;;97.78;61.65;;;16.50;99.90;;;;;;5074010;28;20098;-28
2021/01/18 10:34:17;;;;;;;94.78;65.35;;;16.50;99.90;;;;;;5072726;28;20045;-28
2021/01/18 10:36:45;;;;;;;169.25;124.30;;;16.60;99.90;;;;;;5072871;28;20027;-28
2021/01/18 10:39:26;;;;;;;126.63;96.00;;;16.60;99.90;;;;;;5074863;28;20036;-29
2021/01/18 10:42:01;;;;;;;74.88;53.95;;;16.90;99.90;;;;;;5074310;28;20374;-29
2021/01/18 10:44:26;;;;;;;48.05;36.47;;;17.60;99.90;;;;;;5074206;28;20086;-29
2021/01/18 10:46:52;;;;;;;34.55;25.20;;;18.40;99.90;;;;;;5074512;28;20124;-29
2021/01/18 10:49:26;;;;;;;39.88;26.65;;;18.20;99.90;;;;;;5074435;28;20145;-29
2021/01/18 10:51:58;;;;;;;53.08;30.60;;;18.00;99.90;;;;;;5073761;28;20033;-29
2021/01/18 10:54:24;;;;;;;53.13;32.92;;;17.80;99.90;;;;;;5073973;28;20040;-29
2021/01/18 10:56:50;;;;;;;32.50;17.05;;;17.80;99.90;;;;;;5073913;28;20054;-29
2021/01/18 10:59:16;;;;;;;25.88;15.75;;;17.70;99.90;;;;;;5073781;28;20046;-28
2021/01/18 11:02:05;;;;;;;26.75;16.45;;;17.80;99.90;;;;;;5074103;28;20016;-28
2021/01/18 11:04:35;;;;;;;22.55;10.55;;;17.70;99.90;;;;;;5074340;28;20134;-27
2021/01/18 11:07:01;;;;;;;15.00;8.40;;;17.80;99.90;;;;;;5073801;28;20031;-28
2021/01/18 11:09:34;;;;;;;15.57;8.93;;;17.70;99.90;;;;;;5073729;28;20028;-28
2021/01/18 11:12:03;;;;;;;15.25;9.10;;;17.90;99.90;;;;;;5073826;28;20033;-28
2021/01/18 11:14:31;;;;;;;19.95;9.82;;;17.70;99.90;;;;;;5074043;28;20028;-28
2021/01/18 11:16:58;;;;;;;;;;;17.90;99.90;;;;;;5074037;28;20016;-29
2021/01/18 11:19:24;;;;;;;26.60;10.23;;;18.10;99.90;;;;;;5073526;28;19963;-28
2021/01/18 11:21:50;;;;;;;17.40;9.57;;;18.40;99.90;;;;;;5073482;28;20094;-28
2021/01/18 11:24:16;;;;;;;18.25;11.05;;;18.50;99.90;;;;;;5073700;28;20163;-28
2021/01/18 11:26:42;;;;;;;19.67;10.30;;;18.50;99.90;;;;;;5073868;28;20519;-28
2021/01/18 11:29:07;;;;;;;18.08;10.23;;;18.70;99.90;;;;;;5073368;28;20378;-28
2021/01/18 11:31:33;;;;;;;15.85;9.45;;;18.80;99.90;;;;;;5073384;28;20038;-30
2021/01/18 11:33:59;;;;;;;12.20;8.10;;;18.90;99.90;;;;;;5071987;28;20044;-30
2021/01/18 11:36:25;;;;;;;15.00;7.90;;;18.90;99.90;;;;;;5072491;28;20035;-30
2021/01/18 11:38:52;;;;;;;22.92;10.60;;;18.90;99.90;;;;;;5071825;28;20036;-29
2021/01/18 11:41:18;;;;;;;13.95;8.65;;;19.00;99.90;;;;;;5069723;28;20020;-30
2021/01/18 11:43:44;;;;;;;11.15;6.95;;;19.10;99.90;;;;;;5071124;28;20082;-29
2021/01/18 11:46:16;;;;;;;12.68;7.53;;;19.20;99.90;;;;;;5071926;28;20074;-29
2021/01/18 11:48:43;;;;;;;12.18;7.32;;;19.10;99.90;;;;;;5072243;28;20028;-30
2021/01/18 11:51:09;;;;;;;12.88;8.30;;;19.30;99.90;;;;;;5071744;28;20104;-30
2021/01/18 11:53:35;;;;;;;12.98;8.35;;;19.30;99.90;;;;;;5071223;28;20099;-31
2021/01/18 11:56:00;;;;;;;11.93;8.13;;;19.40;99.90;;;;;;5071512;28;20028;-30
2021/01/18 11:58:26;;;;;;;16.13;8.52;;;19.40;99.90;;;;;;5072059;28;20035;-30
2021/01/18 12:00:52;;;;;;;9.80;7.32;;;19.50;99.90;;;;;;5070604;28;20016;-30
2021/01/18 12:03:18;;;;;;;17.00;11.50;;;19.70;99.90;;;;;;5070240;28;20059;-30
2021/01/18 12:05:44;;;;;;;25.17;13.60;;;19.80;99.90;;;;;;5071681;28;20017;-30
2021/01/18 12:08:10;;;;;;;17.73;11.90;;;19.70;99.90;;;;;;5071357;28;20027;-30
2021/01/18 12:10:36;;;;;;;19.45;11.32;;;19.80;99.90;;;;;;5071379;28;20029;-30
2021/01/18 12:13:03;;;;;;;19.20;11.70;;;19.90;99.90;;;;;;5071110;28;20024;-30
2021/01/18 12:15:30;;;;;;;18.73;14.05;;;20.00;99.90;;;;;;5068610;28;20111;-30
2021/01/18 12:17:56;;;;;;;15.43;11.50;;;20.10;99.90;;;;;;5070727;28;20496;-30
2021/01/18 12:20:22;;;;;;;13.73;11.13;;;20.20;99.90;;;;;;5071433;28;20021;-31
2021/01/18 12:22:53;;;;;;;16.48;11.05;;;20.30;99.90;;;;;;5070706;28;20470;-30
2021/01/18 12:25:19;;;;;;;12.30;8.18;;;20.40;99.90;;;;;;5071589;28;20035;-30
2021/01/18 12:27:56;;;;;;;20.27;10.60;;;20.40;99.90;;;;;;5071715;28;20036;-30
2021/01/18 12:30:23;;;;;;;14.43;8.87;;;20.50;99.90;;;;;;5071730;28;20044;-30
2021/01/18 12:32:49;;;;;;;15.90;9.43;;;20.50;99.90;;;;;;5071608;28;20020;-30
2021/01/18 12:35:16;;;;;;;13.43;9.45;;;20.60;99.90;;;;;;5071517;28;20475;-30
2021/01/18 12:37:42;;;;;;;15.70;10.02;;;20.70;99.90;;;;;;5071464;28;20032;-31
2021/01/18 12:40:09;;;;;;;12.88;10.32;;;20.70;99.90;;;;;;5071563;28;20032;-30
2021/01/18 12:42:42;;;;;;;11.98;9.02;;;20.80;99.90;;;;;;5071400;28;20074;-30
2021/01/18 12:45:09;;;;;;;14.43;9.50;;;21.00;99.90;;;;;;5071096;28;20035;-30
2021/01/18 12:47:35;;;;;;;13.73;9.38;;;21.10;99.90;;;;;;5071570;28;20421;-30
2021/01/18 12:50:01;;;;;;;41.15;32.85;;;21.20;99.90;;;;;;5071727;28;20036;-30
2021/01/18 12:52:27;;;;;;;28.83;21.75;;;21.30;99.90;;;;;;5071283;28;20353;-30